usa flag      colorado flag

Language: 

TigerDenWX History Data from Weather Underground


TigerDenWX Weather Station Historical Data
 
Daily Summary for January 22, 2019 Units:  English    Metric   Both
Daily Weekly Monthly Yearly Custom
  Current: High: Low: Average:
Temperature: 27.9 °F 30.2 °F 22.7 °F 25.1 °F
Dew Point: 15.0 °F 21.7 °F 15.0 °F 19.3 °F
Humidity: 58% 89% 57% 79%
Wind Speed: 2.0mph 15.0mph 0.0mph 5.3mph
Wind Gust: 7.0mph 25.0mph - -
WindNNE - - WSW
Pressure: 30.25 in 30.25 in 29.71 in -
Precipitation: 0.08 in      
Historical Graphs
 
 
Tabular Data for January 22, 2019
Time Temperature Dew Point Pressure Wind Wind Speed Wind Gust Humidity Rainfall Rate (Hourly) solar
00:00 23.3 °F 20.5 °F 29.71 in NE 10.0 mph 14.0 mph 89% 0.03 in 0.00 W/m2
00:15 23.2 °F 20.4 °F 29.73 in NNE 7.0 mph 16.0 mph 89% 0.02 in 0.00 W/m2
00:30 23.5 °F 20.7 °F 29.74 in NE 4.0 mph 14.0 mph 89% 0.01 in 0.00 W/m2
00:45 23.6 °F 20.0 °F 29.75 in NNE 10.0 mph 19.0 mph 86% 0.00 in 0.00 W/m2
01:00 23.7 °F 19.6 °F 29.76 in North 3.0 mph 12.0 mph 84% 0.00 in 0.00 W/m2
01:15 23.7 °F 19.3 °F 29.77 in NE 3.0 mph 10.0 mph 83% 0.00 in 0.00 W/m2
01:30 23.9 °F 19.2 °F 29.78 in North 2.0 mph 12.0 mph 82% 0.00 in 0.00 W/m2
01:45 23.9 °F 19.2 °F 29.80 in North 1.0 mph 13.0 mph 82% 0.00 in 0.00 W/m2
02:00 23.9 °F 18.9 °F 29.80 in NE 3.0 mph 10.0 mph 81% 0.00 in 0.00 W/m2
02:15 24.1 °F 18.8 °F 29.81 in NNE 4.0 mph 10.0 mph 80% 0.00 in 0.00 W/m2
02:30 24.3 °F 18.4 °F 29.82 in Calm   10.0 mph 78% 0.00 in 0.00 W/m2
02:45 24.7 °F 18.5 °F 29.83 in NE 7.0 mph 11.0 mph 77% 0.00 in 0.00 W/m2
03:15 25.5 °F 18.0 °F 29.86 in NW 14.0 mph 25.0 mph 73% 0.00 in 0.00 W/m2
03:30 24.8 °F 18.3 °F 29.88 in NNW 6.0 mph 19.0 mph 76% 0.00 in 0.00 W/m2
03:45 23.7 °F 19.3 °F 29.90 in NW 7.0 mph 23.0 mph 83% 0.00 in 0.00 W/m2
04:00 23.1 °F 19.5 °F 29.91 in North 7.0 mph 19.0 mph 86% 0.00 in 0.00 W/m2
04:15 23.0 °F 19.7 °F 29.93 in NNW 7.0 mph 23.0 mph 87% 0.01 in 0.00 W/m2
04:30 22.9 °F 19.6 °F 29.94 in North 6.0 mph 17.0 mph 87% 0.01 in 0.00 W/m2
04:45 22.9 °F 19.9 °F 29.95 in North 3.0 mph 17.0 mph 88% 0.01 in 0.00 W/m2
05:00 22.8 °F 19.8 °F 29.97 in North 10.0 mph 14.0 mph 88% 0.01 in 0.00 W/m2
05:15 22.8 °F 19.8 °F 29.98 in NNW 7.0 mph 17.0 mph 88% 0.01 in 0.00 W/m2
05:30 22.8 °F 19.8 °F 29.99 in NE 3.0 mph 14.0 mph 88% 0.01 in 0.00 W/m2
05:45 22.8 °F 19.8 °F 30.00 in NNW 4.0 mph 15.0 mph 88% 0.02 in 0.00 W/m2
06:00 22.8 °F 19.8 °F 30.01 in North 2.0 mph 17.0 mph 88% 0.02 in 0.00 W/m2
06:15 22.9 °F 20.1 °F 30.03 in NW 4.0 mph 13.0 mph 89% 0.01 in 0.00 W/m2
06:30 23.0 °F 20.2 °F 30.04 in WNW 4.0 mph 16.0 mph 89% 0.02 in 0.00 W/m2
06:45 22.9 °F 20.1 °F 30.05 in NW 1.0 mph 14.0 mph 89% 0.02 in 0.00 W/m2
07:00 22.8 °F 20.0 °F 30.06 in West 2.0 mph 13.0 mph 89% 0.03 in 0.00 W/m2
07:15 22.8 °F 20.0 °F 30.07 in NNW 12.0 mph 13.0 mph 89% 0.03 in 0.00 W/m2
07:30 22.7 °F 19.9 °F 30.08 in WNW 6.0 mph 20.0 mph 89% 0.03 in 11.00 W/m2
07:45 22.7 °F 19.9 °F 30.09 in West 3.0 mph 18.0 mph 89% 0.02 in 18.00 W/m2
08:00 22.7 °F 19.9 °F 30.10 in NNW 5.0 mph 19.0 mph 89% 0.01 in 47.00 W/m2
08:15 22.9 °F 20.1 °F 30.11 in NW 7.0 mph 23.0 mph 89% 0.00 in 77.00 W/m2
08:30 22.9 °F 19.9 °F 30.12 in NNW 4.0 mph 17.0 mph 88% 0.00 in 74.00 W/m2
08:45 23.0 °F 20.0 °F 30.12 in NW 7.0 mph 16.0 mph 88% 0.00 in 95.00 W/m2
09:00 23.1 °F 20.1 °F 30.13 in NNW 6.0 mph 19.0 mph 88% 0.00 in 202.00 W/m2
09:15 23.6 °F 20.6 °F 30.14 in NW 4.0 mph 19.0 mph 88% 0.00 in 165.00 W/m2
09:30 23.7 °F 20.4 °F 30.15 in WNW 5.0 mph 19.0 mph 87% 0.01 in 176.00 W/m2
09:45 23.8 °F 20.5 °F 30.16 in WNW 15.0 mph 15.0 mph 87% 0.01 in 204.00 W/m2
10:00 24.1 °F 20.5 °F 30.16 in NNW 6.0 mph 13.0 mph 86% 0.01 in 230.00 W/m2
10:15 24.2 °F 20.3 °F 30.18 in NNW 3.0 mph 13.0 mph 85% 0.01 in 230.00 W/m2
10:30 24.6 °F 20.7 °F 30.18 in NNW 5.0 mph 15.0 mph 85% 0.00 in 251.00 W/m2
10:45 25.2 °F 21.0 °F 30.19 in NNE 6.0 mph 14.0 mph 84% 0.00 in 308.00 W/m2
11:00 25.8 °F 21.3 °F 30.19 in NW 2.0 mph 10.0 mph 83% 0.00 in 339.00 W/m2
11:15 26.0 °F 21.5 °F 30.20 in NNW 6.0 mph 12.0 mph 83% 0.00 in 188.00 W/m2
11:30 25.6 °F 21.7 °F 30.20 in North 5.0 mph 13.0 mph 85% 0.00 in 309.00 W/m2
11:45 25.7 °F 21.3 °F 30.20 in WNW 8.0 mph 15.0 mph 83% 0.00 in 497.00 W/m2
12:00 26.8 °F 21.5 °F 30.19 in North 10.0 mph 13.0 mph 80% 0.00 in 473.00 W/m2
12:15 27.3 °F 20.7 °F 30.21 in West 6.0 mph 18.0 mph 76% 0.00 in 410.00 W/m2
12:30 27.5 °F 20.3 °F 30.21 in North 6.0 mph 14.0 mph 74% 0.00 in 438.00 W/m2
12:45 28.0 °F 20.1 °F 30.21 in NNW 5.0 mph 14.0 mph 72% 0.00 in 461.00 W/m2
13:00 28.3 °F 19.8 °F 30.21 in NNE 7.0 mph 14.0 mph 70% 0.00 in 315.00 W/m2
13:15 27.9 °F 19.7 °F 30.22 in NNW 2.0 mph 17.0 mph 71% 0.00 in 102.00 W/m2
13:30 28.7 °F 19.8 °F 30.21 in North 3.0 mph 17.0 mph 69% 0.00 in 482.00 W/m2
13:45 29.0 °F 18.7 °F 30.21 in NNW 6.0 mph 17.0 mph 65% 0.00 in 522.00 W/m2
14:00 29.5 °F 17.7 °F 30.21 in NNW 11.0 mph 17.0 mph 61% 0.00 in 492.00 W/m2
14:15 30.1 °F 17.5 °F 30.21 in North 4.0 mph 17.0 mph 59% 0.00 in 473.00 W/m2
14:30 30.2 °F 17.6 °F 30.22 in NW 11.0 mph 19.0 mph 59% 0.00 in 508.00 W/m2
14:45 29.7 °F 17.1 °F 30.23 in NNE 4.0 mph 14.0 mph 59% 0.00 in 494.00 W/m2
15:00 30.0 °F 16.6 °F 30.22 in NNE 6.0 mph 11.0 mph 57% 0.00 in 128.00 W/m2
15:15 29.0 °F 16.4 °F 30.23 in NNW 4.0 mph 13.0 mph 59% 0.00 in 146.00 W/m2
15:30 28.8 °F 16.3 °F 30.24 in North 4.0 mph 11.0 mph 59% 0.00 in 134.00 W/m2
15:45 28.7 °F 16.2 °F 30.24 in NNW 2.0 mph 14.0 mph 59% 0.00 in 105.00 W/m2
16:00 28.5 °F 16.0 °F 30.25 in Calm   7.0 mph 59% 0.00 in 67.00 W/m2
16:15 28.2 °F 16.5 °F 30.25 in North 3.0 mph 9.0 mph 61% 0.00 in 60.00 W/m2
16:30 28.1 °F 15.6 °F 30.25 in North 3.0 mph 6.0 mph 59% 0.00 in 46.00 W/m2
16:45 27.9 °F 15.0 °F 30.25 in NNE 2.0 mph 7.0 mph 58% 0.00 in 32.00 W/m2
SE Aurora, Colorado Weather
Compliments of Weather Underground - 2 mb
top